sensor_id;sensor_type;location;lat;lon;timestamp;P1;durP1;ratioP1;P2;durP2;ratioP2
8592;SDS011;4334;49.982;8.398;2024-01-25T00:00:30;12.50;;;2.70;;
8592;SDS011;4334;49.982;8.398;2024-01-25T00:02:57;15.37;;;3.00;;
8592;SDS011;4334;49.982;8.398;2024-01-25T00:05:24;16.67;;;2.77;;
8592;SDS011;4334;49.982;8.398;2024-01-25T00:07:52;11.63;;;2.70;;
8592;SDS011;4334;49.982;8.398;2024-01-25T00:10:18;15.13;;;2.93;;
8592;SDS011;4334;49.982;8.398;2024-01-25T00:12:45;10.17;;;2.33;;
8592;SDS011;4334;49.982;8.398;2024-01-25T00:15:12;8.20;;;2.13;;
8592;SDS011;4334;49.982;8.398;2024-01-25T00:17:39;9.90;;;2.17;;
8592;SDS011;4334;49.982;8.398;2024-01-25T00:20:08;9.03;;;2.00;;
8592;SDS011;4334;49.982;8.398;2024-01-25T00:22:36;9.43;;;2.83;;
8592;SDS011;4334;49.982;8.398;2024-01-25T00:25:04;9.40;;;2.40;;
8592;SDS011;4334;49.982;8.398;2024-01-25T00:27:31;11.43;;;2.30;;
8592;SDS011;4334;49.982;8.398;2024-01-25T00:29:58;14.63;;;3.37;;
8592;SDS011;4334;49.982;8.398;2024-01-25T00:32:25;9.60;;;2.53;;
8592;SDS011;4334;49.982;8.398;2024-01-25T00:34:52;12.63;;;2.37;;
8592;SDS011;4334;49.982;8.398;2024-01-25T00:37:19;10.23;;;2.23;;
8592;SDS011;4334;49.982;8.398;2024-01-25T00:39:46;18.20;;;2.77;;
8592;SDS011;4334;49.982;8.398;2024-01-25T00:42:15;9.37;;;2.70;;
8592;SDS011;4334;49.982;8.398;2024-01-25T00:44:44;13.67;;;2.57;;
8592;SDS011;4334;49.982;8.398;2024-01-25T00:47:12;17.17;;;2.53;;
8592;SDS011;4334;49.982;8.398;2024-01-25T00:49:39;8.77;;;2.60;;
8592;SDS011;4334;49.982;8.398;2024-01-25T00:52:06;12.23;;;2.23;;
8592;SDS011;4334;49.982;8.398;2024-01-25T00:54:34;8.63;;;2.37;;
8592;SDS011;4334;49.982;8.398;2024-01-25T00:57:01;12.37;;;2.00;;
8592;SDS011;4334;49.982;8.398;2024-01-25T00:59:29;15.40;;;2.87;;
8592;SDS011;4334;49.982;8.398;2024-01-25T01:01:56;8.17;;;2.57;;
8592;SDS011;4334;49.982;8.398;2024-01-25T01:04:25;11.40;;;2.40;;
8592;SDS011;4334;49.982;8.398;2024-01-25T01:06:52;10.87;;;2.20;;
8592;SDS011;4334;49.982;8.398;2024-01-25T01:09:19;6.37;;;2.00;;
8592;SDS011;4334;49.982;8.398;2024-01-25T01:11:46;16.53;;;2.90;;
8592;SDS011;4334;49.982;8.398;2024-01-25T01:14:15;11.93;;;2.77;;
8592;SDS011;4334;49.982;8.398;2024-01-25T01:16:43;12.37;;;2.50;;
8592;SDS011;4334;49.982;8.398;2024-01-25T01:19:10;9.83;;;2.97;;
8592;SDS011;4334;49.982;8.398;2024-01-25T01:21:36;17.73;;;2.90;;
8592;SDS011;4334;49.982;8.398;2024-01-25T01:24:04;8.37;;;2.57;;
8592;SDS011;4334;49.982;8.398;2024-01-25T01:26:30;5.63;;;2.27;;
8592;SDS011;4334;49.982;8.398;2024-01-25T01:28:57;15.93;;;2.77;;
8592;SDS011;4334;49.982;8.398;2024-01-25T01:31:24;8.57;;;2.57;;
8592;SDS011;4334;49.982;8.398;2024-01-25T01:33:52;6.40;;;2.00;;
8592;SDS011;4334;49.982;8.398;2024-01-25T01:36:18;16.97;;;3.13;;
8592;SDS011;4334;49.982;8.398;2024-01-25T01:38:46;10.73;;;2.90;;
8592;SDS011;4334;49.982;8.398;2024-01-25T01:41:12;12.90;;;2.57;;
8592;SDS011;4334;49.982;8.398;2024-01-25T01:43:39;10.87;;;2.37;;
8592;SDS011;4334;49.982;8.398;2024-01-25T01:46:07;10.20;;;2.73;;
8592;SDS011;4334;49.982;8.398;2024-01-25T01:48:37;8.37;;;2.30;;
8592;SDS011;4334;49.982;8.398;2024-01-25T01:51:06;12.37;;;3.23;;
8592;SDS011;4334;49.982;8.398;2024-01-25T01:53:34;12.00;;;2.37;;
8592;SDS011;4334;49.982;8.398;2024-01-25T01:56:02;10.40;;;2.47;;
8592;SDS011;4334;49.982;8.398;2024-01-25T01:58:29;13.30;;;2.10;;
8592;SDS011;4334;49.982;8.398;2024-01-25T02:00:57;10.33;;;2.07;;
8592;SDS011;4334;49.982;8.398;2024-01-25T02:03:25;13.67;;;2.60;;
8592;SDS011;4334;49.982;8.398;2024-01-25T02:05:52;9.47;;;2.17;;
8592;SDS011;4334;49.982;8.398;2024-01-25T02:08:20;11.50;;;2.10;;
8592;SDS011;4334;49.982;8.398;2024-01-25T02:10:47;7.80;;;2.30;;
8592;SDS011;4334;49.982;8.398;2024-01-25T02:13:14;10.03;;;2.60;;
8592;SDS011;4334;49.982;8.398;2024-01-25T02:15:40;9.97;;;2.40;;
8592;SDS011;4334;49.982;8.398;2024-01-25T02:18:07;10.73;;;2.40;;
8592;SDS011;4334;49.982;8.398;2024-01-25T02:20:33;13.27;;;2.40;;
8592;SDS011;4334;49.982;8.398;2024-01-25T02:23:01;9.00;;;2.50;;
8592;SDS011;4334;49.982;8.398;2024-01-25T02:25:28;13.10;;;2.47;;
8592;SDS011;4334;49.982;8.398;2024-01-25T02:27:55;8.57;;;2.00;;
8592;SDS011;4334;49.982;8.398;2024-01-25T02:30:22;16.17;;;2.57;;
8592;SDS011;4334;49.982;8.398;2024-01-25T02:32:48;12.20;;;2.60;;
8592;SDS011;4334;49.982;8.398;2024-01-25T02:35:15;7.20;;;2.30;;
8592;SDS011;4334;49.982;8.398;2024-01-25T02:37:42;13.07;;;2.73;;
8592;SDS011;4334;49.982;8.398;2024-01-25T02:40:10;10.20;;;2.27;;
8592;SDS011;4334;49.982;8.398;2024-01-25T02:42:38;16.30;;;2.97;;
8592;SDS011;4334;49.982;8.398;2024-01-25T02:45:05;11.30;;;2.30;;
8592;SDS011;4334;49.982;8.398;2024-01-25T02:47:32;11.33;;;2.90;;
8592;SDS011;4334;49.982;8.398;2024-01-25T02:49:58;13.17;;;2.50;;
8592;SDS011;4334;49.982;8.398;2024-01-25T02:52:25;11.03;;;2.27;;
8592;SDS011;4334;49.982;8.398;2024-01-25T02:54:52;10.83;;;2.90;;
8592;SDS011;4334;49.982;8.398;2024-01-25T02:57:20;13.13;;;2.57;;
8592;SDS011;4334;49.982;8.398;2024-01-25T02:59:46;10.53;;;2.53;;
8592;SDS011;4334;49.982;8.398;2024-01-25T03:02:13;12.13;;;3.17;;
8592;SDS011;4334;49.982;8.398;2024-01-25T03:04:41;15.50;;;3.03;;
8592;SDS011;4334;49.982;8.398;2024-01-25T03:07:08;11.47;;;1.90;;
8592;SDS011;4334;49.982;8.398;2024-01-25T03:09:35;5.53;;;1.83;;
8592;SDS011;4334;49.982;8.398;2024-01-25T03:12:02;9.67;;;2.77;;
8592;SDS011;4334;49.982;8.398;2024-01-25T03:14:30;12.87;;;3.00;;
8592;SDS011;4334;49.982;8.398;2024-01-25T03:16:57;11.37;;;2.40;;
8592;SDS011;4334;49.982;8.398;2024-01-25T03:19:24;10.27;;;2.60;;
8592;SDS011;4334;49.982;8.398;2024-01-25T03:21:51;8.53;;;2.50;;
8592;SDS011;4334;49.982;8.398;2024-01-25T03:24:19;10.40;;;2.73;;
8592;SDS011;4334;49.982;8.398;2024-01-25T03:26:46;12.70;;;3.10;;
8592;SDS011;4334;49.982;8.398;2024-01-25T03:29:13;14.47;;;2.00;;
8592;SDS011;4334;49.982;8.398;2024-01-25T03:31:41;13.83;;;2.97;;
8592;SDS011;4334;49.982;8.398;2024-01-25T03:34:08;12.87;;;2.30;;
8592;SDS011;4334;49.982;8.398;2024-01-25T03:36:35;13.07;;;2.73;;
8592;SDS011;4334;49.982;8.398;2024-01-25T03:39:02;11.60;;;2.30;;
8592;SDS011;4334;49.982;8.398;2024-01-25T03:41:29;15.20;;;2.47;;
8592;SDS011;4334;49.982;8.398;2024-01-25T03:43:55;8.27;;;2.37;;
8592;SDS011;4334;49.982;8.398;2024-01-25T03:46:22;10.33;;;2.03;;
8592;SDS011;4334;49.982;8.398;2024-01-25T03:48:50;12.67;;;2.37;;
8592;SDS011;4334;49.982;8.398;2024-01-25T03:51:19;9.33;;;2.10;;
8592;SDS011;4334;49.982;8.398;2024-01-25T03:53:46;7.93;;;2.50;;
8592;SDS011;4334;49.982;8.398;2024-01-25T03:56:13;12.07;;;2.20;;
8592;SDS011;4334;49.982;8.398;2024-01-25T03:58:42;12.90;;;3.07;;
8592;SDS011;4334;49.982;8.398;2024-01-25T04:01:08;8.07;;;2.30;;
8592;SDS011;4334;49.982;8.398;2024-01-25T04:03:35;11.73;;;2.53;;
8592;SDS011;4334;49.982;8.398;2024-01-25T04:06:03;20.90;;;3.07;;
8592;SDS011;4334;49.982;8.398;2024-01-25T04:08:30;12.07;;;2.50;;
8592;SDS011;4334;49.982;8.398;2024-01-25T04:10:57;11.00;;;2.67;;
8592;SDS011;4334;49.982;8.398;2024-01-25T04:13:24;21.80;;;3.53;;
8592;SDS011;4334;49.982;8.398;2024-01-25T04:15:50;9.87;;;2.33;;
8592;SDS011;4334;49.982;8.398;2024-01-25T04:18:17;13.97;;;2.90;;
8592;SDS011;4334;49.982;8.398;2024-01-25T04:20:44;13.20;;;2.27;;
8592;SDS011;4334;49.982;8.398;2024-01-25T04:23:13;12.93;;;2.77;;
8592;SDS011;4334;49.982;8.398;2024-01-25T04:25:39;13.37;;;2.53;;
8592;SDS011;4334;49.982;8.398;2024-01-25T04:28:06;12.97;;;2.67;;
8592;SDS011;4334;49.982;8.398;2024-01-25T04:30:33;16.43;;;2.83;;
8592;SDS011;4334;49.982;8.398;2024-01-25T04:32:59;9.00;;;2.37;;
8592;SDS011;4334;49.982;8.398;2024-01-25T04:35:26;14.23;;;2.53;;
8592;SDS011;4334;49.982;8.398;2024-01-25T04:37:53;9.30;;;2.23;;
8592;SDS011;4334;49.982;8.398;2024-01-25T04:40:21;11.77;;;2.43;;
8592;SDS011;4334;49.982;8.398;2024-01-25T04:42:47;14.77;;;2.93;;
8592;SDS011;4334;49.982;8.398;2024-01-25T04:45:14;14.77;;;2.50;;
8592;SDS011;4334;49.982;8.398;2024-01-25T04:47:41;11.47;;;2.53;;
8592;SDS011;4334;49.982;8.398;2024-01-25T04:50:07;12.00;;;2.50;;
8592;SDS011;4334;49.982;8.398;2024-01-25T04:52:35;11.17;;;2.87;;
8592;SDS011;4334;49.982;8.398;2024-01-25T04:55:01;13.70;;;2.83;;
8592;SDS011;4334;49.982;8.398;2024-01-25T04:57:29;11.10;;;2.57;;
8592;SDS011;4334;49.982;8.398;2024-01-25T04:59:56;12.77;;;3.10;;
8592;SDS011;4334;49.982;8.398;2024-01-25T05:02:23;11.80;;;2.93;;
8592;SDS011;4334;49.982;8.398;2024-01-25T05:04:49;8.93;;;2.60;;
8592;SDS011;4334;49.982;8.398;2024-01-25T05:07:16;12.40;;;2.73;;
8592;SDS011;4334;49.982;8.398;2024-01-25T05:09:43;15.43;;;2.57;;
8592;SDS011;4334;49.982;8.398;2024-01-25T05:12:09;16.43;;;2.70;;
8592;SDS011;4334;49.982;8.398;2024-01-25T05:14:37;19.80;;;2.80;;
8592;SDS011;4334;49.982;8.398;2024-01-25T05:17:04;16.83;;;2.73;;
8592;SDS011;4334;49.982;8.398;2024-01-25T05:19:31;15.20;;;2.80;;
8592;SDS011;4334;49.982;8.398;2024-01-25T05:21:57;8.43;;;2.80;;
8592;SDS011;4334;49.982;8.398;2024-01-25T05:24:25;15.67;;;2.73;;
8592;SDS011;4334;49.982;8.398;2024-01-25T05:26:52;8.33;;;2.40;;
8592;SDS011;4334;49.982;8.398;2024-01-25T05:29:18;11.63;;;2.80;;
8592;SDS011;4334;49.982;8.398;2024-01-25T05:31:46;10.63;;;2.90;;
8592;SDS011;4334;49.982;8.398;2024-01-25T05:34:14;16.93;;;2.90;;
8592;SDS011;4334;49.982;8.398;2024-01-25T05:36:41;8.20;;;2.07;;
8592;SDS011;4334;49.982;8.398;2024-01-25T05:39:08;13.00;;;2.67;;
8592;SDS011;4334;49.982;8.398;2024-01-25T05:41:34;11.17;;;2.67;;
8592;SDS011;4334;49.982;8.398;2024-01-25T05:44:01;7.63;;;2.50;;
8592;SDS011;4334;49.982;8.398;2024-01-25T05:46:28;8.20;;;2.63;;
8592;SDS011;4334;49.982;8.398;2024-01-25T05:48:56;5.83;;;2.13;;
8592;SDS011;4334;49.982;8.398;2024-01-25T05:51:22;16.37;;;3.00;;
8592;SDS011;4334;49.982;8.398;2024-01-25T05:53:49;13.67;;;2.63;;
8592;SDS011;4334;49.982;8.398;2024-01-25T05:56:16;7.40;;;2.37;;
8592;SDS011;4334;49.982;8.398;2024-01-25T05:58:42;11.40;;;2.57;;
8592;SDS011;4334;49.982;8.398;2024-01-25T06:01:09;13.07;;;2.50;;
8592;SDS011;4334;49.982;8.398;2024-01-25T06:03:35;12.57;;;2.30;;
8592;SDS011;4334;49.982;8.398;2024-01-25T06:06:03;23.53;;;3.20;;
8592;SDS011;4334;49.982;8.398;2024-01-25T06:08:32;14.73;;;2.73;;
8592;SDS011;4334;49.982;8.398;2024-01-25T06:10:59;11.77;;;2.30;;
8592;SDS011;4334;49.982;8.398;2024-01-25T06:13:26;15.03;;;2.80;;
8592;SDS011;4334;49.982;8.398;2024-01-25T06:15:52;13.93;;;3.00;;
8592;SDS011;4334;49.982;8.398;2024-01-25T06:18:19;13.73;;;3.00;;
8592;SDS011;4334;49.982;8.398;2024-01-25T06:20:46;8.97;;;2.70;;
8592;SDS011;4334;49.982;8.398;2024-01-25T06:23:14;14.80;;;2.77;;
8592;SDS011;4334;49.982;8.398;2024-01-25T06:25:40;12.30;;;2.50;;
8592;SDS011;4334;49.982;8.398;2024-01-25T06:28:07;7.53;;;2.10;;
8592;SDS011;4334;49.982;8.398;2024-01-25T06:30:34;11.63;;;2.70;;
8592;SDS011;4334;49.982;8.398;2024-01-25T06:33:00;8.67;;;2.00;;
8592;SDS011;4334;49.982;8.398;2024-01-25T06:35:28;12.27;;;2.73;;
8592;SDS011;4334;49.982;8.398;2024-01-25T06:37:55;12.77;;;2.70;;
8592;SDS011;4334;49.982;8.398;2024-01-25T06:40:23;14.60;;;2.57;;
8592;SDS011;4334;49.982;8.398;2024-01-25T06:42:50;6.43;;;2.53;;
8592;SDS011;4334;49.982;8.398;2024-01-25T06:45:16;13.33;;;2.63;;
8592;SDS011;4334;49.982;8.398;2024-01-25T06:47:43;14.63;;;3.47;;
8592;SDS011;4334;49.982;8.398;2024-01-25T06:50:10;20.80;;;3.77;;
8592;SDS011;4334;49.982;8.398;2024-01-25T06:52:36;9.70;;;2.57;;
8592;SDS011;4334;49.982;8.398;2024-01-25T06:55:03;13.17;;;3.53;;
8592;SDS011;4334;49.982;8.398;2024-01-25T06:57:32;12.57;;;2.13;;
8592;SDS011;4334;49.982;8.398;2024-01-25T06:59:59;11.17;;;2.40;;
8592;SDS011;4334;49.982;8.398;2024-01-25T07:02:26;14.80;;;4.30;;
8592;SDS011;4334;49.982;8.398;2024-01-25T07:04:52;18.40;;;3.47;;
8592;SDS011;4334;49.982;8.398;2024-01-25T07:07:20;13.97;;;3.10;;
8592;SDS011;4334;49.982;8.398;2024-01-25T07:09:46;12.40;;;3.10;;
8592;SDS011;4334;49.982;8.398;2024-01-25T07:12:13;18.33;;;3.20;;
8592;SDS011;4334;49.982;8.398;2024-01-25T07:14:41;18.53;;;3.43;;
8592;SDS011;4334;49.982;8.398;2024-01-25T07:17:08;11.40;;;3.53;;
8592;SDS011;4334;49.982;8.398;2024-01-25T07:19:35;10.70;;;3.50;;
8592;SDS011;4334;49.982;8.398;2024-01-25T07:22:02;12.50;;;3.57;;
8592;SDS011;4334;49.982;8.398;2024-01-25T07:24:28;16.13;;;3.80;;
8592;SDS011;4334;49.982;8.398;2024-01-25T07:26:55;18.83;;;4.13;;
8592;SDS011;4334;49.982;8.398;2024-01-25T07:29:22;16.20;;;3.27;;
8592;SDS011;4334;49.982;8.398;2024-01-25T07:31:50;17.87;;;3.50;;
8592;SDS011;4334;49.982;8.398;2024-01-25T07:34:17;8.60;;;3.17;;
8592;SDS011;4334;49.982;8.398;2024-01-25T07:36:43;16.40;;;3.63;;
8592;SDS011;4334;49.982;8.398;2024-01-25T07:39:10;13.13;;;3.70;;
8592;SDS011;4334;49.982;8.398;2024-01-25T07:41:36;15.60;;;4.07;;
8592;SDS011;4334;49.982;8.398;2024-01-25T07:44:03;14.83;;;3.53;;
8592;SDS011;4334;49.982;8.398;2024-01-25T07:46:31;16.10;;;3.27;;
8592;SDS011;4334;49.982;8.398;2024-01-25T07:48:59;15.50;;;3.10;;
8592;SDS011;4334;49.982;8.398;2024-01-25T07:51:26;15.37;;;3.73;;
8592;SDS011;4334;49.982;8.398;2024-01-25T07:53:53;14.53;;;3.20;;
8592;SDS011;4334;49.982;8.398;2024-01-25T07:56:20;11.90;;;4.07;;
8592;SDS011;4334;49.982;8.398;2024-01-25T07:58:47;9.87;;;3.90;;
8592;SDS011;4334;49.982;8.398;2024-01-25T08:01:17;17.13;;;4.40;;
8592;SDS011;4334;49.982;8.398;2024-01-25T08:03:43;12.70;;;4.17;;
8592;SDS011;4334;49.982;8.398;2024-01-25T08:06:12;22.80;;;4.17;;
8592;SDS011;4334;49.982;8.398;2024-01-25T08:08:39;16.53;;;4.13;;
8592;SDS011;4334;49.982;8.398;2024-01-25T08:11:05;19.80;;;5.17;;
8592;SDS011;4334;49.982;8.398;2024-01-25T08:13:33;20.80;;;4.30;;
8592;SDS011;4334;49.982;8.398;2024-01-25T08:16:00;18.37;;;3.87;;
8592;SDS011;4334;49.982;8.398;2024-01-25T08:18:26;11.50;;;3.53;;
8592;SDS011;4334;49.982;8.398;2024-01-25T08:20:54;15.07;;;4.07;;
8592;SDS011;4334;49.982;8.398;2024-01-25T08:23:23;13.23;;;3.47;;
8592;SDS011;4334;49.982;8.398;2024-01-25T08:25:49;14.93;;;4.13;;
8592;SDS011;4334;49.982;8.398;2024-01-25T08:28:16;12.03;;;4.20;;
8592;SDS011;4334;49.982;8.398;2024-01-25T08:30:43;14.60;;;3.90;;
8592;SDS011;4334;49.982;8.398;2024-01-25T08:33:10;15.40;;;4.13;;
8592;SDS011;4334;49.982;8.398;2024-01-25T08:35:36;19.27;;;3.80;;
8592;SDS011;4334;49.982;8.398;2024-01-25T08:38:04;13.07;;;3.00;;
8592;SDS011;4334;49.982;8.398;2024-01-25T08:40:32;16.07;;;3.37;;
8592;SDS011;4334;49.982;8.398;2024-01-25T08:42:59;16.20;;;3.80;;
8592;SDS011;4334;49.982;8.398;2024-01-25T08:45:25;12.33;;;2.97;;
8592;SDS011;4334;49.982;8.398;2024-01-25T08:47:52;13.47;;;3.00;;
8592;SDS011;4334;49.982;8.398;2024-01-25T08:50:19;10.43;;;3.27;;
8592;SDS011;4334;49.982;8.398;2024-01-25T08:52:45;15.97;;;3.63;;
8592;SDS011;4334;49.982;8.398;2024-01-25T08:55:13;13.70;;;2.97;;
8592;SDS011;4334;49.982;8.398;2024-01-25T08:57:41;14.07;;;5.63;;
8592;SDS011;4334;49.982;8.398;2024-01-25T09:00:08;12.73;;;4.70;;
8592;SDS011;4334;49.982;8.398;2024-01-25T09:02:36;9.93;;;3.80;;
8592;SDS011;4334;49.982;8.398;2024-01-25T09:05:03;19.53;;;4.93;;
8592;SDS011;4334;49.982;8.398;2024-01-25T09:07:30;15.20;;;3.80;;
8592;SDS011;4334;49.982;8.398;2024-01-25T09:09:57;16.17;;;4.00;;
8592;SDS011;4334;49.982;8.398;2024-01-25T09:12:24;13.60;;;3.43;;
8592;SDS011;4334;49.982;8.398;2024-01-25T09:14:52;9.30;;;3.00;;
8592;SDS011;4334;49.982;8.398;2024-01-25T09:17:19;14.30;;;4.40;;
8592;SDS011;4334;49.982;8.398;2024-01-25T09:19:47;13.00;;;3.57;;
8592;SDS011;4334;49.982;8.398;2024-01-25T09:22:14;14.87;;;3.80;;
8592;SDS011;4334;49.982;8.398;2024-01-25T09:24:42;14.23;;;3.47;;
8592;SDS011;4334;49.982;8.398;2024-01-25T09:27:09;15.70;;;3.60;;
8592;SDS011;4334;49.982;8.398;2024-01-25T09:29:35;20.13;;;4.03;;
8592;SDS011;4334;49.982;8.398;2024-01-25T09:32:05;18.40;;;3.70;;
8592;SDS011;4334;49.982;8.398;2024-01-25T09:34:32;13.63;;;3.03;;
8592;SDS011;4334;49.982;8.398;2024-01-25T09:36:59;15.50;;;3.30;;
8592;SDS011;4334;49.982;8.398;2024-01-25T09:39:25;16.10;;;3.50;;
8592;SDS011;4334;49.982;8.398;2024-01-25T09:41:52;15.60;;;3.30;;
8592;SDS011;4334;49.982;8.398;2024-01-25T09:44:19;11.73;;;2.93;;
8592;SDS011;4334;49.982;8.398;2024-01-25T09:46:46;12.97;;;3.60;;
8592;SDS011;4334;49.982;8.398;2024-01-25T09:49:15;12.13;;;3.03;;
8592;SDS011;4334;49.982;8.398;2024-01-25T09:51:41;12.97;;;2.70;;
8592;SDS011;4334;49.982;8.398;2024-01-25T09:54:09;14.17;;;3.13;;
8592;SDS011;4334;49.982;8.398;2024-01-25T09:56:36;13.90;;;3.10;;
8592;SDS011;4334;49.982;8.398;2024-01-25T09:59:05;12.13;;;3.10;;
8592;SDS011;4334;49.982;8.398;2024-01-25T10:01:32;18.57;;;3.67;;
8592;SDS011;4334;49.982;8.398;2024-01-25T10:03:59;17.10;;;3.20;;
8592;SDS011;4334;49.982;8.398;2024-01-25T10:06:27;9.90;;;2.80;;
8592;SDS011;4334;49.982;8.398;2024-01-25T10:08:54;10.87;;;3.07;;
8592;SDS011;4334;49.982;8.398;2024-01-25T10:11:21;13.47;;;3.47;;
8592;SDS011;4334;49.982;8.398;2024-01-25T10:13:50;11.90;;;3.03;;
8592;SDS011;4334;49.982;8.398;2024-01-25T10:16:19;11.30;;;3.07;;
8592;SDS011;4334;49.982;8.398;2024-01-25T10:18:46;12.63;;;2.90;;
8592;SDS011;4334;49.982;8.398;2024-01-25T10:21:14;11.53;;;2.90;;
8592;SDS011;4334;49.982;8.398;2024-01-25T10:23:44;13.73;;;3.30;;
8592;SDS011;4334;49.982;8.398;2024-01-25T10:26:12;9.53;;;2.50;;
8592;SDS011;4334;49.982;8.398;2024-01-25T10:28:39;14.37;;;2.90;;
8592;SDS011;4334;49.982;8.398;2024-01-25T10:31:06;17.57;;;3.60;;
8592;SDS011;4334;49.982;8.398;2024-01-25T10:33:34;18.47;;;3.23;;
8592;SDS011;4334;49.982;8.398;2024-01-25T10:36:04;12.60;;;3.20;;
8592;SDS011;4334;49.982;8.398;2024-01-25T10:38:35;15.40;;;3.37;;
8592;SDS011;4334;49.982;8.398;2024-01-25T10:41:04;13.67;;;3.27;;
8592;SDS011;4334;49.982;8.398;2024-01-25T10:43:31;9.23;;;2.70;;
8592;SDS011;4334;49.982;8.398;2024-01-25T10:45:59;17.30;;;3.40;;
8592;SDS011;4334;49.982;8.398;2024-01-25T10:48:26;11.30;;;2.90;;
8592;SDS011;4334;49.982;8.398;2024-01-25T10:50:54;12.60;;;2.60;;
8592;SDS011;4334;49.982;8.398;2024-01-25T10:53:21;11.67;;;2.50;;
8592;SDS011;4334;49.982;8.398;2024-01-25T10:55:48;12.47;;;2.53;;
8592;SDS011;4334;49.982;8.398;2024-01-25T10:58:17;13.93;;;3.13;;
8592;SDS011;4334;49.982;8.398;2024-01-25T11:00:49;11.53;;;3.33;;
8592;SDS011;4334;49.982;8.398;2024-01-25T11:03:18;10.40;;;2.93;;
8592;SDS011;4334;49.982;8.398;2024-01-25T11:05:45;14.10;;;2.90;;
8592;SDS011;4334;49.982;8.398;2024-01-25T11:08:18;7.70;;;3.07;;
8592;SDS011;4334;49.982;8.398;2024-01-25T11:10:48;6.77;;;2.40;;
8592;SDS011;4334;49.982;8.398;2024-01-25T11:13:18;9.47;;;3.00;;
8592;SDS011;4334;49.982;8.398;2024-01-25T11:15:50;11.50;;;2.70;;
8592;SDS011;4334;49.982;8.398;2024-01-25T11:18:16;12.67;;;3.13;;
8592;SDS011;4334;49.982;8.398;2024-01-25T11:20:46;14.70;;;2.63;;
8592;SDS011;4334;49.982;8.398;2024-01-25T11:23:14;13.30;;;3.10;;
8592;SDS011;4334;49.982;8.398;2024-01-25T11:25:43;9.33;;;2.80;;
8592;SDS011;4334;49.982;8.398;2024-01-25T11:28:12;16.60;;;2.70;;
8592;SDS011;4334;49.982;8.398;2024-01-25T11:30:42;14.00;;;3.50;;
8592;SDS011;4334;49.982;8.398;2024-01-25T11:33:09;10.57;;;2.70;;
8592;SDS011;4334;49.982;8.398;2024-01-25T11:35:36;11.10;;;2.53;;
8592;SDS011;4334;49.982;8.398;2024-01-25T11:38:03;14.57;;;3.10;;
8592;SDS011;4334;49.982;8.398;2024-01-25T11:40:30;12.87;;;3.10;;
8592;SDS011;4334;49.982;8.398;2024-01-25T11:42:57;4.93;;;2.20;;
8592;SDS011;4334;49.982;8.398;2024-01-25T11:45:24;14.73;;;3.00;;
8592;SDS011;4334;49.982;8.398;2024-01-25T11:47:52;10.50;;;2.73;;
8592;SDS011;4334;49.982;8.398;2024-01-25T11:50:19;8.67;;;3.10;;
8592;SDS011;4334;49.982;8.398;2024-01-25T11:52:47;9.20;;;2.73;;
8592;SDS011;4334;49.982;8.398;2024-01-25T11:55:15;11.50;;;3.33;;
8592;SDS011;4334;49.982;8.398;2024-01-25T11:57:42;11.20;;;3.00;;
8592;SDS011;4334;49.982;8.398;2024-01-25T12:00:09;10.33;;;2.50;;
8592;SDS011;4334;49.982;8.398;2024-01-25T12:02:39;7.30;;;2.20;;
8592;SDS011;4334;49.982;8.398;2024-01-25T12:05:08;11.70;;;2.87;;
8592;SDS011;4334;49.982;8.398;2024-01-25T12:07:38;14.33;;;3.00;;
8592;SDS011;4334;49.982;8.398;2024-01-25T12:10:06;11.57;;;2.53;;
8592;SDS011;4334;49.982;8.398;2024-01-25T12:12:35;15.27;;;3.00;;
8592;SDS011;4334;49.982;8.398;2024-01-25T12:15:03;11.03;;;2.80;;
8592;SDS011;4334;49.982;8.398;2024-01-25T12:17:32;15.60;;;3.27;;
8592;SDS011;4334;49.982;8.398;2024-01-25T12:20:01;9.10;;;2.63;;
8592;SDS011;4334;49.982;8.398;2024-01-25T12:22:30;10.97;;;2.77;;
8592;SDS011;4334;49.982;8.398;2024-01-25T12:24:57;8.37;;;2.70;;
8592;SDS011;4334;49.982;8.398;2024-01-25T12:27:24;9.47;;;3.03;;
8592;SDS011;4334;49.982;8.398;2024-01-25T12:29:52;8.37;;;2.50;;
8592;SDS011;4334;49.982;8.398;2024-01-25T12:32:19;8.60;;;2.57;;
8592;SDS011;4334;49.982;8.398;2024-01-25T12:34:53;7.97;;;2.33;;
8592;SDS011;4334;49.982;8.398;2024-01-25T12:37:20;10.90;;;2.50;;
8592;SDS011;4334;49.982;8.398;2024-01-25T12:39:49;8.53;;;2.70;;
8592;SDS011;4334;49.982;8.398;2024-01-25T12:42:17;11.10;;;2.90;;
8592;SDS011;4334;49.982;8.398;2024-01-25T12:44:44;11.10;;;2.38;;
8592;SDS011;4334;49.982;8.398;2024-01-25T12:47:11;6.30;;;2.63;;
8592;SDS011;4334;49.982;8.398;2024-01-25T12:49:39;10.85;;;2.67;;
8592;SDS011;4334;49.982;8.398;2024-01-25T12:52:07;8.77;;;2.30;;
8592;SDS011;4334;49.982;8.398;2024-01-25T12:54:34;12.00;;;2.70;;
8592;SDS011;4334;49.982;8.398;2024-01-25T12:57:02;7.05;;;2.60;;
8592;SDS011;4334;49.982;8.398;2024-01-25T12:59:29;12.70;;;2.90;;
8592;SDS011;4334;49.982;8.398;2024-01-25T13:01:56;12.30;;;2.90;;
8592;SDS011;4334;49.982;8.398;2024-01-25T13:04:22;9.30;;;2.40;;
8592;SDS011;4334;49.982;8.398;2024-01-25T13:06:50;17.77;;;2.97;;
8592;SDS011;4334;49.982;8.398;2024-01-25T13:09:18;7.53;;;2.57;;
8592;SDS011;4334;49.982;8.398;2024-01-25T13:11:45;8.20;;;3.03;;
8592;SDS011;4334;49.982;8.398;2024-01-25T13:14:14;11.73;;;2.40;;
8592;SDS011;4334;49.982;8.398;2024-01-25T13:16:41;13.00;;;2.97;;
8592;SDS011;4334;49.982;8.398;2024-01-25T13:19:07;11.23;;;2.60;;
8592;SDS011;4334;49.982;8.398;2024-01-25T13:21:36;10.53;;;2.63;;
8592;SDS011;4334;49.982;8.398;2024-01-25T13:24:04;7.53;;;2.73;;
8592;SDS011;4334;49.982;8.398;2024-01-25T13:26:31;6.60;;;2.43;;
8592;SDS011;4334;49.982;8.398;2024-01-25T13:28:58;11.27;;;2.50;;
8592;SDS011;4334;49.982;8.398;2024-01-25T13:31:26;9.93;;;2.43;;
8592;SDS011;4334;49.982;8.398;2024-01-25T13:33:53;11.10;;;2.50;;
8592;SDS011;4334;49.982;8.398;2024-01-25T13:36:20;12.80;;;2.70;;
8592;SDS011;4334;49.982;8.398;2024-01-25T13:38:46;11.47;;;2.40;;
8592;SDS011;4334;49.982;8.398;2024-01-25T13:41:13;11.27;;;2.77;;
8592;SDS011;4334;49.982;8.398;2024-01-25T13:43:40;11.27;;;2.40;;
8592;SDS011;4334;49.982;8.398;2024-01-25T13:46:06;8.17;;;2.73;;
8592;SDS011;4334;49.982;8.398;2024-01-25T13:48:34;10.97;;;3.27;;
8592;SDS011;4334;49.982;8.398;2024-01-25T13:51:01;11.97;;;2.57;;
8592;SDS011;4334;49.982;8.398;2024-01-25T13:53:28;9.93;;;3.00;;
8592;SDS011;4334;49.982;8.398;2024-01-25T13:55:54;12.57;;;3.00;;
8592;SDS011;4334;49.982;8.398;2024-01-25T13:58:21;9.97;;;2.57;;
8592;SDS011;4334;49.982;8.398;2024-01-25T14:00:48;9.50;;;2.87;;
8592;SDS011;4334;49.982;8.398;2024-01-25T14:03:14;11.00;;;2.40;;
8592;SDS011;4334;49.982;8.398;2024-01-25T14:05:43;7.77;;;2.27;;
8592;SDS011;4334;49.982;8.398;2024-01-25T14:08:10;9.03;;;2.87;;
8592;SDS011;4334;49.982;8.398;2024-01-25T14:10:36;17.80;;;3.17;;
8592;SDS011;4334;49.982;8.398;2024-01-25T14:13:03;10.57;;;3.00;;
8592;SDS011;4334;49.982;8.398;2024-01-25T14:15:30;9.07;;;2.77;;
8592;SDS011;4334;49.982;8.398;2024-01-25T14:17:56;15.83;;;3.00;;
8592;SDS011;4334;49.982;8.398;2024-01-25T14:20:23;10.03;;;2.53;;
8592;SDS011;4334;49.982;8.398;2024-01-25T14:22:51;9.63;;;2.53;;
8592;SDS011;4334;49.982;8.398;2024-01-25T14:25:18;12.80;;;2.87;;
8592;SDS011;4334;49.982;8.398;2024-01-25T14:27:44;9.57;;;2.73;;
8592;SDS011;4334;49.982;8.398;2024-01-25T14:30:13;9.40;;;2.83;;
8592;SDS011;4334;49.982;8.398;2024-01-25T14:32:40;9.07;;;2.57;;
8592;SDS011;4334;49.982;8.398;2024-01-25T14:35:07;8.70;;;2.77;;
8592;SDS011;4334;49.982;8.398;2024-01-25T14:37:34;12.43;;;3.00;;
8592;SDS011;4334;49.982;8.398;2024-01-25T14:40:02;9.90;;;2.50;;
8592;SDS011;4334;49.982;8.398;2024-01-25T14:42:29;8.73;;;2.43;;
8592;SDS011;4334;49.982;8.398;2024-01-25T14:44:56;12.10;;;2.27;;
8592;SDS011;4334;49.982;8.398;2024-01-25T14:47:22;12.23;;;2.40;;
8592;SDS011;4334;49.982;8.398;2024-01-25T14:49:49;12.40;;;2.43;;
8592;SDS011;4334;49.982;8.398;2024-01-25T14:52:17;14.23;;;2.43;;
8592;SDS011;4334;49.982;8.398;2024-01-25T14:54:43;9.27;;;2.50;;
8592;SDS011;4334;49.982;8.398;2024-01-25T14:57:11;10.23;;;2.60;;
8592;SDS011;4334;49.982;8.398;2024-01-25T14:59:38;15.43;;;3.13;;
8592;SDS011;4334;49.982;8.398;2024-01-25T15:02:05;8.17;;;1.93;;
8592;SDS011;4334;49.982;8.398;2024-01-25T15:04:31;12.27;;;2.87;;